createdAt,value
2018-11-28T00:02:18.823Z,36.50
2018-11-28T00:05:08.553Z,34.13
2018-11-28T00:07:38.249Z,35.55
2018-11-28T00:10:10.962Z,35.03
2018-11-28T00:12:41.419Z,37.48
2018-11-28T00:15:31.315Z,35.13
2018-11-28T00:18:02.116Z,36.23
2018-11-28T00:20:32.063Z,34.85
2018-11-28T00:23:21.451Z,37.78
2018-11-28T00:25:52.203Z,35.75
2018-11-28T00:28:22.573Z,34.35
2018-11-28T00:30:53.459Z,35.88
2018-11-28T00:33:23.423Z,35.63
2018-11-28T00:35:54.375Z,37.98
2018-11-28T00:38:23.997Z,37.80
2018-11-28T00:40:54.102Z,36.48
2018-11-28T00:43:25.057Z,37.48
2018-11-28T00:46:13.915Z,36.05
2018-11-28T00:49:03.091Z,38.55
2018-11-28T00:51:33.902Z,36.77
2018-11-28T00:54:03.532Z,36.38
2018-11-28T00:56:33.399Z,37.67
2018-11-28T00:59:03.627Z,37.25
2018-11-28T01:01:33.248Z,36.70
2018-11-28T01:04:03.579Z,36.40
2018-11-28T01:06:33.268Z,39.45
2018-11-28T01:11:52.843Z,41.00
2018-11-28T01:14:22.987Z,40.23
2018-11-28T01:16:52.629Z,38.48
2018-11-28T01:19:22.429Z,39.88
2018-11-28T01:21:52.645Z,37.63
2018-11-28T01:24:22.862Z,38.38
2018-11-28T01:26:52.894Z,42.67
2018-11-28T01:29:22.786Z,41.13
2018-11-28T01:32:12.730Z,41.02
2018-11-28T01:34:42.991Z,38.98
2018-11-28T01:37:12.946Z,38.53
2018-11-28T01:39:43.244Z,39.38
2018-11-28T01:42:13.505Z,37.13
2018-11-28T01:44:44.148Z,35.80
2018-11-28T01:47:14.627Z,37.55
2018-11-28T01:49:45.068Z,33.48
2018-11-28T01:52:14.959Z,36.75
2018-11-28T01:54:45.296Z,35.33
2018-11-28T01:57:15.294Z,37.08
2018-11-28T01:59:45.152Z,35.83
2018-11-28T02:02:33.679Z,36.50
2018-11-28T02:05:04.240Z,34.95
2018-11-28T02:07:34.650Z,34.73
2018-11-28T02:10:04.265Z,33.85
2018-11-28T02:12:34.458Z,33.08
2018-11-28T02:15:04.379Z,36.68
2018-11-28T02:17:53.475Z,32.88
2018-11-28T02:20:24.067Z,36.42
2018-11-28T02:22:54.329Z,35.33
2018-11-28T02:25:24.614Z,36.38
2018-11-28T02:28:13.928Z,34.08
2018-11-28T02:30:44.558Z,33.25
2018-11-28T02:33:14.547Z,33.25
2018-11-28T02:35:44.448Z,32.65
2018-11-28T02:38:14.363Z,33.90
2018-11-28T02:40:44.606Z,35.05
2018-11-28T02:43:14.600Z,33.53
2018-11-28T02:46:04.484Z,33.10
2018-11-28T02:48:34.595Z,32.67
2018-11-28T02:51:23.433Z,34.10
2018-11-28T02:53:53.743Z,33.15
2018-11-28T02:56:24.109Z,30.62
2018-11-28T02:58:54.458Z,31.33
2018-11-28T03:01:24.343Z,30.35
2018-11-28T03:03:54.253Z,31.48
2018-11-28T03:06:24.243Z,31.93
2018-11-28T03:08:54.289Z,31.02
2018-11-28T03:11:44.057Z,30.17
2018-11-28T03:14:14.013Z,30.10
2018-11-28T03:16:44.014Z,30.82
2018-11-28T03:19:13.627Z,31.37
2018-11-28T03:21:43.673Z,29.70
2018-11-28T03:24:13.660Z,28.30
2018-11-28T03:26:44.439Z,28.60
2018-11-28T03:29:34.120Z,31.48
2018-11-28T03:32:03.748Z,32.80
2018-11-28T03:34:34.300Z,29.63
2018-11-28T03:39:54.495Z,34.05
2018-11-28T03:42:24.739Z,31.87
2018-11-28T03:44:54.416Z,31.73
2018-11-28T03:47:24.662Z,31.73
2018-11-28T03:49:55.231Z,32.45
2018-11-28T03:52:25.502Z,33.98
2018-11-28T03:54:56.048Z,32.23
2018-11-28T03:57:26.596Z,33.00
2018-11-28T03:59:57.065Z,33.15
2018-11-28T04:02:27.328Z,34.35
2018-11-28T04:04:57.750Z,36.48
2018-11-28T04:07:27.597Z,32.25
2018-11-28T04:09:57.581Z,32.35
2018-11-28T04:12:27.917Z,33.75
2018-11-28T04:15:17.454Z,32.35
2018-11-28T04:17:48.013Z,32.30
2018-11-28T04:20:37.382Z,33.48
2018-11-28T04:23:07.585Z,34.13
2018-11-28T04:25:38.454Z,37.15
2018-11-28T04:28:08.708Z,36.25
2018-11-28T04:30:38.709Z,40.15
2018-11-28T04:33:09.025Z,37.40
2018-11-28T04:35:39.293Z,36.30
2018-11-28T04:38:09.134Z,38.28
2018-11-28T04:40:39.069Z,37.63
2018-11-28T04:43:09.260Z,42.62
2018-11-28T04:45:40.244Z,40.55
2018-11-28T04:48:29.682Z,38.60
2018-11-28T04:50:59.607Z,39.53
2018-11-28T04:53:29.885Z,40.98
2018-11-28T04:55:59.784Z,39.98
2018-11-28T04:58:30.422Z,39.13
2018-11-28T05:01:00.289Z,41.00
2018-11-28T05:03:30.173Z,40.78
2018-11-28T05:06:00.343Z,39.90
2018-11-28T05:08:29.963Z,39.70
2018-11-28T05:11:00.272Z,40.48
2018-11-28T05:13:30.602Z,38.13
2018-11-28T05:16:01.484Z,37.45
2018-11-28T05:18:31.159Z,40.17
2018-11-28T05:21:19.963Z,38.65
2018-11-28T05:24:09.607Z,39.25
2018-11-28T05:29:15.237Z,39.27
2018-11-28T05:31:45.133Z,37.88
2018-11-28T05:34:15.588Z,40.60
2018-11-28T05:37:05.120Z,38.80
2018-11-28T05:39:35.019Z,40.55
2018-11-28T05:42:05.331Z,42.38
2018-11-28T05:44:35.279Z,39.27
2018-11-28T05:47:05.172Z,41.02
2018-11-28T05:49:35.388Z,38.95
2018-11-28T05:52:05.574Z,39.45
2018-11-28T05:54:54.400Z,38.42
2018-11-28T05:57:23.987Z,41.02
2018-11-28T05:59:54.424Z,42.20
2018-11-28T06:02:24.039Z,43.30
2018-11-28T06:04:54.209Z,39.88
2018-11-28T06:07:24.129Z,38.65
2018-11-28T06:09:53.777Z,38.78
2018-11-28T06:12:23.929Z,41.25
2018-11-28T06:14:54.075Z,39.45
2018-11-28T06:17:24.571Z,38.28
2018-11-28T06:19:54.569Z,38.00
2018-11-28T06:22:24.820Z,37.10
2018-11-28T06:24:54.730Z,37.23
2018-11-28T06:27:24.849Z,38.38
2018-11-28T06:29:54.485Z,36.95
2018-11-28T06:32:24.448Z,38.98
2018-11-28T06:34:54.336Z,38.65
2018-11-28T06:37:23.961Z,38.60
2018-11-28T06:39:53.849Z,41.30
2018-11-28T06:42:23.717Z,39.98
2018-11-28T06:44:53.944Z,40.58
2018-11-28T06:47:23.875Z,40.23
2018-11-28T06:49:53.998Z,40.35
2018-11-28T06:52:24.139Z,45.60
2018-11-28T06:54:54.034Z,40.23
2018-11-28T06:57:24.167Z,40.80
2018-11-28T06:59:54.592Z,40.88
2018-11-28T07:02:24.724Z,41.05
2018-11-28T07:04:55.282Z,40.23
2018-11-28T07:10:02.132Z,40.75
2018-11-28T07:12:51.953Z,38.95
2018-11-28T07:15:41.079Z,37.42
2018-11-28T07:18:48.473Z,37.80
2018-11-28T07:21:18.975Z,39.53
2018-11-28T07:23:49.119Z,37.08
2018-11-28T07:26:19.055Z,35.40
2018-11-28T07:28:49.265Z,35.08
2018-11-28T07:31:19.274Z,37.33
2018-11-28T07:33:49.834Z,38.33
2018-11-28T07:36:39.391Z,37.38
2018-11-28T07:39:09.716Z,38.10
2018-11-28T07:41:39.935Z,37.38
2018-11-28T07:44:10.106Z,34.67
2018-11-28T07:46:40.687Z,38.38
2018-11-28T07:49:10.294Z,36.98
2018-11-28T07:51:40.355Z,38.80
2018-11-28T07:54:29.660Z,36.00
2018-11-28T07:56:59.320Z,36.13
2018-11-28T07:59:29.818Z,36.53
2018-11-28T08:01:59.838Z,33.83
2018-11-28T08:04:29.534Z,34.23
2018-11-28T08:06:59.463Z,36.20
2018-11-28T08:09:29.091Z,37.23
2018-11-28T08:11:59.382Z,36.38
2018-11-28T08:14:29.308Z,35.52
2018-11-28T08:16:59.636Z,36.75
2018-11-28T08:19:30.069Z,37.03
2018-11-28T08:21:59.983Z,34.43
2018-11-28T08:24:30.167Z,33.70
2018-11-28T08:26:59.775Z,34.23
2018-11-28T08:29:29.396Z,35.65
2018-11-28T08:31:59.003Z,33.53
2018-11-28T08:34:28.976Z,32.50
2018-11-28T08:36:58.949Z,33.10
2018-11-28T08:39:28.850Z,34.25
2018-11-28T08:41:58.814Z,32.85
2018-11-28T08:44:29.072Z,32.65
2018-11-28T08:46:59.949Z,31.95
2018-11-28T08:49:30.774Z,31.55
2018-11-28T08:52:00.406Z,30.62
2018-11-28T08:54:30.382Z,31.85
2018-11-28T08:57:00.655Z,29.82
2018-11-28T08:59:30.667Z,29.72
2018-11-28T09:02:00.564Z,30.75
2018-11-28T09:04:30.160Z,30.60
2018-11-28T09:06:59.796Z,31.27
2018-11-28T09:09:49.822Z,30.50
2018-11-28T09:12:19.572Z,28.85
2018-11-28T09:14:49.465Z,29.80
2018-11-28T09:17:19.812Z,29.40
2018-11-28T09:19:49.430Z,30.05
2018-11-28T09:22:38.887Z,30.27
2018-11-28T09:25:12.795Z,28.55
2018-11-28T09:27:43.822Z,29.27
2018-11-28T09:30:32.981Z,28.92
2018-11-28T09:33:02.606Z,29.20
2018-11-28T09:35:33.035Z,29.27
2018-11-28T09:38:02.950Z,28.80
2018-11-28T09:40:32.868Z,29.30
2018-11-28T09:43:02.791Z,29.80
2018-11-28T09:45:32.695Z,31.10
2018-11-28T09:48:02.638Z,28.90
2018-11-28T09:50:32.218Z,29.75
2018-11-28T09:53:02.753Z,30.95
2018-11-28T09:55:32.663Z,28.57
2018-11-28T09:58:03.342Z,30.10
2018-11-28T10:00:32.972Z,30.05
2018-11-28T10:03:02.971Z,27.70
2018-11-28T10:05:36.414Z,30.60
2018-11-28T10:08:06.333Z,28.57
2018-11-28T10:10:35.992Z,29.27
2018-11-28T10:13:06.007Z,30.70
2018-11-28T10:15:36.367Z,30.80
2018-11-28T10:18:06.402Z,29.02
2018-11-28T10:20:36.529Z,29.10
2018-11-28T10:23:06.846Z,32.95
2018-11-28T10:25:37.067Z,27.95
2018-11-28T10:28:09.131Z,29.35
2018-11-28T10:30:58.194Z,31.07
2018-11-28T10:33:28.406Z,29.02
2018-11-28T10:35:58.553Z,28.35
2018-11-28T10:38:28.509Z,29.05
2018-11-28T10:40:58.454Z,29.20
2018-11-28T10:43:28.510Z,27.80
2018-11-28T10:45:58.705Z,28.83
2018-11-28T10:48:28.882Z,28.15
2018-11-28T10:50:59.379Z,29.05
2018-11-28T10:53:29.579Z,29.20
2018-11-28T10:55:59.499Z,28.87
2018-11-28T10:58:29.386Z,28.77
2018-11-28T11:01:17.928Z,28.50
2018-11-28T11:04:06.457Z,28.65
2018-11-28T11:06:55.001Z,26.17
2018-11-28T11:09:43.973Z,29.15
2018-11-28T11:12:32.839Z,28.00
2018-11-28T11:15:02.699Z,26.97
2018-11-28T11:17:32.318Z,27.30
2018-11-28T11:20:02.427Z,26.80
2018-11-28T11:22:32.752Z,27.82
2018-11-28T11:25:02.669Z,25.32
2018-11-28T11:27:32.671Z,26.48
2018-11-28T11:30:02.377Z,26.93
2018-11-28T11:32:32.345Z,25.85
2018-11-28T11:35:02.592Z,26.27
2018-11-28T11:37:32.550Z,27.45
2018-11-28T11:40:02.558Z,26.17
2018-11-28T11:42:32.781Z,25.10
2018-11-28T11:45:03.105Z,26.75
2018-11-28T11:47:33.059Z,25.43
2018-11-28T11:50:03.352Z,25.40
2018-11-28T11:52:33.355Z,25.43
2018-11-28T11:55:03.322Z,24.43
2018-11-28T11:57:33.301Z,26.23
2018-11-28T12:00:03.319Z,26.05
2018-11-28T12:05:22.882Z,24.50
2018-11-28T12:07:53.110Z,23.70
2018-11-28T12:10:23.362Z,22.60
2018-11-28T12:13:12.219Z,23.40
2018-11-28T12:15:42.153Z,25.32
2018-11-28T12:18:12.122Z,24.75
2018-11-28T12:20:54.981Z,25.55
2018-11-28T12:23:24.584Z,25.12
2018-11-28T12:25:55.077Z,25.65
2018-11-28T12:28:25.927Z,26.87
2018-11-28T12:30:55.782Z,26.80
2018-11-28T12:33:25.899Z,26.02
2018-11-28T12:36:14.696Z,27.82
2018-11-28T12:38:44.625Z,26.25
2018-11-28T12:41:15.238Z,24.77
2018-11-28T12:47:20.589Z,25.27
2018-11-28T12:49:50.767Z,27.00
2018-11-28T12:52:21.449Z,26.25
2018-11-28T12:54:51.141Z,26.85
2018-11-28T12:57:21.468Z,26.55
2018-11-28T12:59:52.212Z,25.08
2018-11-28T13:02:21.850Z,25.00
2018-11-28T13:04:51.895Z,24.37
2018-11-28T13:07:41.813Z,23.98
2018-11-28T13:10:49.487Z,26.73
2018-11-28T13:13:19.443Z,25.05
2018-11-28T13:15:49.068Z,26.23
2018-11-28T13:18:19.034Z,24.57
2018-11-28T13:20:48.965Z,22.90
2018-11-28T13:23:19.026Z,23.40
2018-11-28T13:25:49.008Z,22.75
2018-11-28T13:28:19.352Z,22.70
2018-11-28T13:30:49.665Z,23.62
2018-11-28T13:33:19.319Z,22.00
2018-11-28T13:35:49.884Z,20.82
2018-11-28T13:40:49.692Z,21.85
2018-11-28T13:43:20.048Z,21.68
2018-11-28T13:45:50.345Z,21.37
2018-11-28T13:48:20.282Z,21.15
2018-11-28T13:50:50.196Z,22.13
2018-11-28T13:53:20.942Z,20.95
2018-11-28T13:58:41.168Z,21.70
2018-11-28T14:01:11.697Z,23.10
2018-11-28T14:03:41.720Z,23.85
2018-11-28T14:06:11.305Z,22.35
2018-11-28T14:08:41.584Z,21.87
2018-11-28T14:11:12.125Z,22.60
2018-11-28T14:13:42.034Z,22.17
2018-11-28T14:16:11.643Z,20.80
2018-11-28T14:18:41.322Z,21.10
2018-11-28T14:21:10.944Z,20.73
2018-11-28T14:23:41.176Z,21.12
2018-11-28T14:26:11.069Z,22.25
2018-11-28T14:29:00.149Z,23.55
2018-11-28T14:31:30.917Z,22.37
2018-11-28T14:34:00.531Z,21.25
2018-11-28T14:36:30.139Z,22.13
2018-11-28T14:39:01.836Z,22.65
2018-11-28T14:41:33.624Z,21.12
2018-11-28T14:44:03.246Z,22.45
2018-11-28T14:46:33.125Z,22.67
2018-11-28T14:49:03.037Z,23.00
2018-11-28T14:51:32.683Z,22.40
2018-11-28T14:54:03.227Z,23.10
2018-11-28T14:56:33.510Z,23.10
2018-11-28T14:59:03.412Z,23.95
2018-11-28T15:01:33.051Z,23.30
2018-11-28T15:04:02.938Z,22.85
2018-11-28T15:06:35.869Z,22.70
2018-11-28T15:09:43.782Z,22.00
2018-11-28T15:12:14.415Z,22.27
2018-11-28T15:14:44.382Z,21.35
2018-11-28T15:17:13.986Z,23.77
2018-11-28T15:19:44.260Z,23.27
2018-11-28T15:22:14.835Z,23.38
2018-11-28T15:24:44.780Z,23.75
2018-11-28T15:27:14.422Z,23.83
2018-11-28T15:29:44.589Z,24.87
2018-11-28T15:32:14.513Z,23.35
2018-11-28T15:34:44.478Z,22.70
2018-11-28T15:37:14.441Z,24.00
2018-11-28T15:39:44.874Z,22.65
2018-11-28T15:42:14.790Z,24.55
2018-11-28T15:44:44.443Z,23.77
2018-11-28T15:47:14.074Z,24.15
2018-11-28T15:49:44.027Z,23.10
2018-11-28T15:52:14.020Z,25.10
2018-11-28T15:54:43.943Z,22.87
2018-11-28T15:57:14.130Z,23.90
2018-11-28T15:59:44.352Z,23.98
2018-11-28T16:02:13.967Z,24.15
2018-11-28T16:04:44.469Z,23.73
2018-11-28T16:07:14.453Z,23.98
2018-11-28T16:10:01.470Z,22.27
2018-11-28T16:12:31.120Z,24.60
2018-11-28T16:15:01.116Z,23.92
2018-11-28T16:17:31.007Z,23.98
2018-11-28T16:20:00.637Z,24.77
2018-11-28T16:22:30.607Z,23.52
2018-11-28T16:25:00.227Z,22.87
2018-11-28T16:27:30.531Z,24.60
2018-11-28T16:30:00.461Z,23.47
2018-11-28T16:32:30.686Z,24.77
2018-11-28T16:35:03.105Z,24.00
2018-11-28T16:37:33.378Z,24.47
2018-11-28T16:40:03.313Z,24.72
2018-11-28T16:42:33.653Z,24.65
2018-11-28T16:45:03.287Z,24.10
2018-11-28T16:47:33.552Z,26.33
2018-11-28T16:50:03.787Z,27.13
2018-11-28T16:52:34.124Z,24.92
2018-11-28T16:55:04.782Z,24.92
2018-11-28T16:57:34.429Z,23.20
2018-11-28T17:00:05.061Z,25.72
2018-11-28T17:02:35.098Z,24.57
2018-11-28T17:05:05.246Z,24.90
2018-11-28T17:07:35.427Z,26.15
2018-11-28T17:10:05.873Z,23.67
2018-11-28T17:12:36.143Z,26.37
2018-11-28T17:15:06.334Z,25.85
2018-11-28T17:17:37.491Z,24.63
2018-11-28T17:20:10.535Z,25.00
2018-11-28T17:22:40.858Z,25.95
2018-11-28T17:25:18.157Z,26.62
2018-11-28T17:27:48.049Z,28.00
2018-11-28T17:30:19.276Z,26.90
2018-11-28T17:32:48.922Z,29.00
2018-11-28T17:35:19.527Z,27.55
2018-11-28T17:37:49.437Z,28.05
2018-11-28T17:40:20.971Z,28.32
2018-11-28T17:42:52.258Z,28.77
2018-11-28T17:45:22.150Z,28.12
2018-11-28T17:47:51.778Z,29.00
2018-11-28T17:50:25.693Z,28.77
2018-11-28T17:53:15.174Z,27.58
2018-11-28T17:55:52.443Z,28.02
2018-11-28T17:58:22.684Z,28.00
2018-11-28T18:00:52.588Z,27.45
2018-11-28T18:03:22.892Z,28.17
2018-11-28T18:05:52.824Z,26.20
2018-11-28T18:08:23.046Z,27.02
2018-11-28T18:10:52.656Z,27.02
2018-11-28T18:13:22.275Z,27.22
2018-11-28T18:15:53.376Z,26.17
2018-11-28T18:18:24.343Z,25.65
2018-11-28T18:20:54.261Z,27.55
2018-11-28T18:23:24.158Z,26.45
2018-11-28T18:25:54.499Z,28.12
2018-11-28T18:28:24.455Z,28.20
2018-11-28T18:30:54.065Z,28.87
2018-11-28T18:33:23.948Z,29.00
2018-11-28T18:35:53.841Z,28.20
2018-11-28T18:38:23.773Z,29.48
2018-11-28T18:40:53.673Z,27.98
2018-11-28T18:43:23.289Z,27.10
2018-11-28T18:45:54.402Z,28.70
2018-11-28T18:48:25.269Z,27.70
2018-11-28T18:50:55.193Z,27.60
2018-11-28T18:53:24.806Z,28.15
2018-11-28T18:55:55.115Z,27.27
2018-11-28T18:58:25.077Z,30.10
2018-11-28T19:00:54.695Z,28.38
2018-11-28T19:03:24.408Z,29.15
2018-11-28T19:05:54.020Z,29.27
2018-11-28T19:08:23.981Z,28.62
2018-11-28T19:10:53.925Z,29.18
2018-11-28T19:13:23.536Z,29.30
2018-11-28T19:15:53.159Z,28.80
2018-11-28T19:18:22.823Z,29.00
2018-11-28T19:20:52.458Z,28.30
2018-11-28T19:23:22.472Z,26.87
2018-11-28T19:25:52.215Z,27.90
2018-11-28T19:28:22.965Z,26.57
2018-11-28T19:30:52.659Z,27.75
2018-11-28T19:33:23.021Z,27.13
2018-11-28T19:35:53.543Z,26.30
2018-11-28T19:38:23.556Z,24.82
2018-11-28T19:41:05.507Z,24.98
2018-11-28T19:43:36.430Z,25.40
2018-11-28T19:46:06.148Z,27.40
2018-11-28T19:48:36.057Z,27.00
2018-11-28T19:51:05.668Z,26.85
2018-11-28T19:53:35.668Z,28.38
2018-11-28T19:56:05.562Z,27.30
2018-11-28T19:58:35.911Z,28.57
2018-11-28T20:01:06.211Z,27.80
2018-11-28T20:03:36.219Z,26.33
2018-11-28T20:06:06.138Z,25.72
2018-11-28T20:08:36.490Z,25.55
2018-11-28T20:11:06.287Z,26.97
2018-11-28T20:13:36.501Z,25.23
2018-11-28T20:16:06.844Z,27.22
2018-11-28T20:18:36.876Z,26.40
2018-11-28T20:21:06.882Z,26.40
2018-11-28T20:23:37.293Z,26.27
2018-11-28T20:26:06.995Z,27.22
2018-11-28T20:28:36.763Z,25.12
2018-11-28T20:31:06.678Z,24.25
2018-11-28T20:33:37.437Z,25.80
2018-11-28T20:36:07.454Z,25.95
2018-11-28T20:38:37.648Z,24.35
2018-11-28T20:41:07.924Z,27.30
2018-11-28T20:43:37.655Z,26.40
2018-11-28T20:46:08.169Z,24.30
2018-11-28T20:48:38.508Z,24.65
2018-11-28T20:51:08.525Z,24.12
2018-11-28T20:53:38.515Z,26.75
2018-11-28T20:56:08.851Z,25.75
2018-11-28T20:58:39.704Z,23.98
2018-11-28T21:01:09.825Z,23.62
2018-11-28T21:03:39.795Z,25.17
2018-11-28T21:06:09.510Z,25.08
2018-11-28T21:08:39.864Z,24.90
2018-11-28T21:11:09.527Z,25.48
2018-11-28T21:13:40.518Z,24.52
2018-11-28T21:16:10.460Z,25.85
2018-11-28T21:18:40.980Z,24.45
2018-11-28T21:21:11.023Z,23.90
2018-11-28T21:23:40.679Z,26.60
2018-11-28T21:26:11.182Z,27.10
2018-11-28T21:28:41.184Z,27.22
2018-11-28T21:31:11.521Z,24.90
2018-11-28T21:33:41.804Z,25.37
2018-11-28T21:36:12.117Z,27.70
2018-11-28T21:38:42.459Z,24.70
2018-11-28T21:41:12.663Z,25.75
2018-11-28T21:43:42.644Z,25.72
2018-11-28T21:46:12.264Z,27.15
2018-11-28T21:48:41.926Z,24.75
2018-11-28T21:51:11.912Z,26.42
2018-11-28T21:53:41.569Z,24.60
2018-11-28T21:56:11.843Z,26.02
2018-11-28T21:58:41.776Z,27.15
2018-11-28T22:01:11.399Z,25.02
2018-11-28T22:03:41.304Z,23.80
2018-11-28T22:06:10.927Z,25.95
2018-11-28T22:08:40.572Z,25.12
2018-11-28T22:11:29.208Z,26.48
2018-11-28T22:13:59.811Z,25.12
2018-11-28T22:16:29.595Z,26.10
2018-11-28T22:18:59.759Z,23.67
2018-11-28T22:21:30.047Z,25.52
2018-11-28T22:23:59.665Z,25.05
2018-11-28T22:26:29.571Z,25.30
2018-11-28T22:28:59.471Z,24.82
2018-11-28T22:31:29.695Z,24.47
2018-11-28T22:33:59.953Z,22.87
2018-11-28T22:36:29.830Z,25.43
2018-11-28T22:38:59.759Z,25.00
2018-11-28T22:41:30.041Z,23.80
2018-11-28T22:44:00.714Z,25.52
2018-11-28T22:46:31.784Z,25.43
2018-11-28T22:49:01.782Z,24.18
2018-11-28T22:51:31.391Z,25.35
2018-11-28T22:54:01.386Z,24.52
2018-11-28T22:56:31.626Z,25.15
2018-11-28T22:59:02.055Z,24.35
2018-11-28T23:02:18.567Z,24.55
2018-11-28T23:04:48.476Z,26.17
2018-11-28T23:07:18.792Z,25.20
2018-11-28T23:09:49.323Z,24.90
2018-11-28T23:12:19.249Z,24.40
2018-11-28T23:14:49.966Z,24.82
2018-11-28T23:17:20.702Z,25.50
2018-11-28T23:19:50.732Z,25.52
2018-11-28T23:22:20.592Z,25.32
2018-11-28T23:24:50.478Z,24.77
2018-11-28T23:27:20.774Z,26.52
2018-11-28T23:29:51.298Z,25.32
2018-11-28T23:32:21.554Z,26.23
2018-11-28T23:34:51.439Z,23.50
2018-11-28T23:37:21.968Z,23.67
2018-11-28T23:39:51.865Z,25.48
2018-11-28T23:42:22.151Z,25.97
2018-11-28T23:44:52.134Z,25.55
2018-11-28T23:47:22.351Z,25.95
2018-11-28T23:49:52.249Z,26.52
2018-11-28T23:52:22.160Z,25.40
2018-11-28T23:54:52.042Z,26.75
2018-11-28T23:57:21.912Z,25.60
2018-11-28T23:59:52.072Z,25.48
